createdAt,value
2018-12-25T00:02:25.366Z,72.93
2018-12-25T00:05:28.257Z,72.73
2018-12-25T00:08:38.968Z,73.22
2018-12-25T00:11:42.266Z,73.02
2018-12-25T00:14:53.009Z,73.35
2018-12-25T00:17:56.239Z,72.01
2018-12-25T00:21:06.947Z,72.46
2018-12-25T00:24:09.896Z,71.78
2018-12-25T00:27:20.626Z,72.44
2018-12-25T00:30:24.260Z,71.87
2018-12-25T00:33:34.962Z,71.89
2018-12-25T00:36:38.262Z,72.24
2018-12-25T00:39:48.951Z,72.01
2018-12-25T00:42:52.213Z,71.61
2018-12-25T00:46:02.918Z,72.07
2018-12-25T00:49:05.793Z,71.99
2018-12-25T00:52:16.507Z,72.07
2018-12-25T00:55:20.199Z,71.97
2018-12-25T00:58:23.065Z,72.16
2018-12-25T01:01:33.755Z,72.15
2018-12-25T01:04:36.846Z,72.53
2018-12-25T01:07:47.519Z,72.47
2018-12-25T01:10:50.797Z,72.54
2018-12-25T01:14:01.538Z,72.51
2018-12-25T01:17:05.033Z,72.63
2018-12-25T01:20:15.690Z,71.98
2018-12-25T01:23:19.339Z,72.05
2018-12-25T01:26:29.998Z,71.40
2018-12-25T01:29:33.761Z,71.93
2018-12-25T01:32:44.396Z,72.35
2018-12-25T01:35:47.279Z,72.63
2018-12-25T01:38:57.988Z,71.77
2018-12-25T01:42:00.888Z,71.62
2018-12-25T01:45:11.699Z,71.90
2018-12-25T01:48:15.369Z,72.34
2018-12-25T01:51:26.085Z,71.92
2018-12-25T01:54:29.185Z,72.59
2018-12-25T01:57:32.871Z,73.00
2018-12-25T02:00:35.957Z,71.81
2018-12-25T02:03:46.652Z,72.54
2018-12-25T02:06:49.542Z,72.59
2018-12-25T02:10:00.235Z,72.58
2018-12-25T02:13:03.882Z,72.44
2018-12-25T02:16:14.563Z,72.08
2018-12-25T02:19:17.516Z,72.20
2018-12-25T02:22:28.227Z,72.21
2018-12-25T02:25:31.141Z,72.26
2018-12-25T02:28:41.827Z,72.23
2018-12-25T02:31:45.301Z,72.38
2018-12-25T02:34:56.008Z,72.48
2018-12-25T02:37:58.969Z,72.13
2018-12-25T02:41:01.963Z,72.81
2018-12-25T02:44:05.150Z,72.40
2018-12-25T02:47:15.818Z,72.11
2018-12-25T02:50:18.854Z,72.54
2018-12-25T02:53:29.549Z,72.30
2018-12-25T02:56:32.501Z,72.00
2018-12-25T02:59:43.231Z,71.53
2018-12-25T03:02:46.218Z,71.96
2018-12-25T03:05:56.909Z,71.70
2018-12-25T03:09:00.353Z,72.02
2018-12-25T03:12:11.078Z,72.70
2018-12-25T03:15:14.597Z,72.35
2018-12-25T03:18:25.337Z,72.91
2018-12-25T03:21:28.588Z,73.08
2018-12-25T03:24:32.197Z,72.49
2018-12-25T03:27:35.742Z,71.93
2018-12-25T03:30:46.397Z,71.57
2018-12-25T03:33:49.560Z,71.96
2018-12-25T03:37:00.305Z,71.94
2018-12-25T03:40:03.560Z,72.29
2018-12-25T03:43:33.138Z,72.84
2018-12-25T03:46:36.651Z,72.13
2018-12-25T03:49:47.384Z,71.98
2018-12-25T03:52:50.852Z,72.19
2018-12-25T03:55:53.927Z,72.03
2018-12-25T03:59:04.775Z,72.03
2018-12-25T04:02:07.847Z,72.11
2018-12-25T04:05:10.683Z,72.39
2018-12-25T04:08:15.694Z,72.52
2018-12-25T04:11:26.045Z,71.71
2018-12-25T04:14:29.682Z,72.34
2018-12-25T04:17:40.332Z,72.16
2018-12-25T04:20:43.571Z,72.16
2018-12-25T04:23:46.430Z,71.77
2018-12-25T04:26:49.356Z,72.02
2018-12-25T04:30:00.045Z,71.87
2018-12-25T04:33:03.186Z,71.49
2018-12-25T04:36:13.923Z,71.83
2018-12-25T04:39:17.148Z,72.36
2018-12-25T04:42:20.687Z,71.72
2018-12-25T04:45:31.362Z,72.40
2018-12-25T04:48:35.009Z,72.68
2018-12-25T04:51:45.709Z,72.35
2018-12-25T04:54:48.680Z,72.45
2018-12-25T04:57:52.479Z,72.32
2018-12-25T05:00:55.764Z,72.40
2018-12-25T05:04:06.448Z,72.04
2018-12-25T05:07:09.774Z,72.39
2018-12-25T05:10:20.467Z,71.62
2018-12-25T05:13:24.024Z,72.00
2018-12-25T05:16:34.685Z,72.66
2018-12-25T05:19:38.228Z,72.43
2018-12-25T05:22:48.919Z,72.70
2018-12-25T05:25:52.393Z,72.66
2018-12-25T05:29:03.107Z,72.32
2018-12-25T05:32:06.669Z,72.27
2018-12-25T05:35:10.239Z,72.89
2018-12-25T05:38:20.911Z,72.67
2018-12-25T05:41:24.002Z,73.15
2018-12-25T05:44:34.652Z,73.07
2018-12-25T05:47:38.377Z,72.91
2018-12-25T05:50:49.084Z,72.77
2018-12-25T05:53:52.539Z,73.33
2018-12-25T05:57:03.243Z,72.70
2018-12-25T06:00:06.942Z,72.65
2018-12-25T06:03:36.698Z,72.93
2018-12-25T06:06:39.784Z,73.34
2018-12-25T06:09:50.491Z,73.53
2018-12-25T06:12:53.901Z,72.87
2018-12-25T06:16:04.636Z,73.39
2018-12-25T06:19:07.888Z,73.11
2018-12-25T06:22:11.218Z,73.38
2018-12-25T06:25:21.912Z,73.96
2018-12-25T06:28:24.682Z,72.99
2018-12-25T06:34:59.603Z,73.22
2018-12-25T06:38:10.315Z,73.67
2018-12-25T06:41:13.760Z,73.50
2018-12-25T06:44:24.482Z,73.31
2018-12-25T06:47:28.187Z,73.92
2018-12-25T06:50:38.905Z,73.60
2018-12-25T06:53:42.709Z,73.69
2018-12-25T06:56:53.373Z,73.74
2018-12-25T06:59:56.791Z,73.77
2018-12-25T07:02:48.510Z,74.02
2018-12-25T07:05:40.273Z,73.91
2018-12-25T07:08:50.971Z,73.90
2018-12-25T07:11:55.455Z,73.73
2018-12-25T07:14:59.029Z,73.66
2018-12-25T07:18:09.776Z,73.94
2018-12-25T07:21:12.707Z,74.18
2018-12-25T07:24:16.446Z,74.39
2018-12-25T07:27:19.191Z,73.89
2018-12-25T07:30:22.390Z,73.74
2018-12-25T07:33:33.096Z,73.59
2018-12-25T07:36:36.393Z,73.47
2018-12-25T07:39:47.100Z,73.58
2018-12-25T07:42:49.818Z,73.97
2018-12-25T07:45:52.783Z,73.56
2018-12-25T07:49:03.484Z,73.62
2018-12-25T07:52:06.458Z,73.69
2018-12-25T07:55:09.517Z,73.56
2018-12-25T07:58:20.268Z,73.50
2018-12-25T08:01:23.424Z,73.55
2018-12-25T08:04:34.142Z,73.15
2018-12-25T08:07:37.432Z,73.67
2018-12-25T08:10:48.146Z,73.92
2018-12-25T08:13:51.922Z,73.87
2018-12-25T08:17:02.694Z,73.97
2018-12-25T08:20:06.063Z,74.29
2018-12-25T08:23:16.782Z,74.65
2018-12-25T08:26:20.418Z,74.64
2018-12-25T08:29:31.172Z,74.79
2018-12-25T08:32:34.005Z,74.46
2018-12-25T08:35:44.815Z,74.56
2018-12-25T08:38:47.751Z,74.03
2018-12-25T08:41:58.547Z,74.06
2018-12-25T08:45:01.918Z,74.24
2018-12-25T08:48:12.648Z,74.13
2018-12-25T08:51:16.123Z,74.37
2018-12-25T08:54:26.815Z,73.93
2018-12-25T08:57:30.200Z,73.73
2018-12-25T09:00:59.807Z,73.21
2018-12-25T09:04:03.113Z,72.90
2018-12-25T09:07:13.785Z,72.88
2018-12-25T09:10:16.734Z,72.88
2018-12-25T09:13:27.484Z,72.80
2018-12-25T09:16:31.046Z,71.11
2018-12-25T09:19:41.715Z,71.09
2018-12-25T09:22:45.547Z,71.41
2018-12-25T09:25:56.281Z,71.27
2018-12-25T09:28:59.906Z,70.82
2018-12-25T09:32:10.655Z,69.50
2018-12-25T09:35:14.444Z,67.29
2018-12-25T09:38:17.404Z,65.09
2018-12-25T09:41:28.164Z,65.12
2018-12-25T09:44:31.523Z,64.36
2018-12-25T09:47:42.228Z,62.89
2018-12-25T09:50:45.242Z,58.15
2018-12-25T09:53:55.938Z,56.34
2018-12-25T09:56:59.013Z,54.45
2018-12-25T10:00:02.248Z,53.78
2018-12-25T10:03:05.296Z,53.99
2018-12-25T10:06:15.993Z,54.79
2018-12-25T10:09:19.417Z,54.92
2018-12-25T10:12:22.788Z,54.12
2018-12-25T10:15:33.462Z,53.92
2018-12-25T10:18:36.304Z,52.93
2018-12-25T10:21:47.066Z,53.29
2018-12-25T10:24:51.420Z,52.31
2018-12-25T10:28:02.153Z,51.95
2018-12-25T10:31:05.684Z,51.03
2018-12-25T10:34:16.388Z,51.61
2018-12-25T10:37:19.910Z,50.86
2018-12-25T10:40:30.632Z,47.38
2018-12-25T10:43:34.937Z,42.70
2018-12-25T10:46:45.734Z,44.71
2018-12-25T10:49:49.262Z,43.21
2018-12-25T10:52:59.991Z,45.89
2018-12-25T10:56:03.182Z,47.96
2018-12-25T10:59:06.585Z,50.38
2018-12-25T11:02:10.392Z,52.04
2018-12-25T11:05:21.083Z,55.58
2018-12-25T11:08:24.079Z,57.07
2018-12-25T11:15:06.708Z,59.12
2018-12-25T11:18:10.042Z,59.92
2018-12-25T11:21:12.969Z,58.16
2018-12-25T11:24:16.731Z,56.84
2018-12-25T11:27:19.516Z,55.01
2018-12-25T11:30:30.259Z,54.58
2018-12-25T11:33:33.281Z,54.72
2018-12-25T11:36:44.058Z,55.10
2018-12-25T11:39:49.590Z,56.19
2018-12-25T11:42:59.893Z,55.79
2018-12-25T11:46:03.224Z,56.43
2018-12-25T11:49:13.965Z,56.51
2018-12-25T11:52:17.585Z,58.00
2018-12-25T11:58:25.017Z,59.40
2018-12-25T12:01:28.403Z,59.88
2018-12-25T12:04:31.814Z,60.33
2018-12-25T12:07:34.912Z,60.70
2018-12-25T12:10:45.585Z,60.99
2018-12-25T12:13:48.793Z,61.53
2018-12-25T12:16:59.508Z,60.97
2018-12-25T12:20:02.698Z,61.64
2018-12-25T12:23:13.383Z,60.65
2018-12-25T12:26:16.881Z,60.97
2018-12-25T12:29:27.536Z,60.83
2018-12-25T12:32:30.503Z,60.64
2018-12-25T12:35:41.185Z,60.58
2018-12-25T12:41:35.326Z,60.29
2018-12-25T12:44:38.360Z,60.51
2018-12-25T12:47:41.352Z,59.92
2018-12-25T12:50:51.759Z,59.28
2018-12-25T12:53:54.288Z,60.32
2018-12-25T12:56:57.631Z,58.18
2018-12-25T13:00:08.751Z,56.73
2018-12-25T13:03:11.584Z,52.36
2018-12-25T13:06:21.873Z,48.45
2018-12-25T13:09:25.078Z,44.80
2018-12-25T13:12:35.375Z,43.28
2018-12-25T13:15:38.176Z,45.60
2018-12-25T13:18:41.589Z,49.87
2018-12-25T13:21:51.886Z,52.33
2018-12-25T13:24:55.338Z,54.19
2018-12-25T13:28:05.633Z,54.95
2018-12-25T13:31:08.616Z,56.76
2018-12-25T13:34:18.885Z,58.06
2018-12-25T13:37:22.060Z,59.93
2018-12-25T13:40:33.243Z,61.03
2018-12-25T13:43:36.688Z,62.31
2018-12-25T13:50:29.815Z,62.46
2018-12-25T13:57:08.071Z,63.34
2018-12-25T14:00:11.030Z,63.41
2018-12-25T14:03:13.921Z,64.02
2018-12-25T14:06:16.586Z,64.90
2018-12-25T14:09:26.891Z,64.58
2018-12-25T14:12:29.523Z,64.38
2018-12-25T14:15:32.611Z,64.42
2018-12-25T14:18:42.931Z,64.87
2018-12-25T14:21:45.797Z,65.05
2018-12-25T14:24:56.079Z,65.44
2018-12-25T14:27:59.275Z,65.51
2018-12-25T14:31:09.563Z,66.08
2018-12-25T14:34:12.917Z,66.34
2018-12-25T14:37:23.192Z,65.48
2018-12-25T14:40:26.244Z,65.78
2018-12-25T14:43:36.638Z,65.65
2018-12-25T14:46:39.989Z,65.61
2018-12-25T14:49:50.257Z,65.01
2018-12-25T14:52:53.291Z,65.15
2018-12-25T14:56:03.593Z,65.70
2018-12-25T14:59:06.128Z,66.23
2018-12-25T15:02:16.418Z,65.88
2018-12-25T15:05:19.171Z,65.59
2018-12-25T15:08:29.450Z,65.61
2018-12-25T15:11:32.865Z,65.63
2018-12-25T15:14:43.344Z,66.25
2018-12-25T15:17:46.820Z,66.35
2018-12-25T15:20:50.265Z,66.93
2018-12-25T15:24:00.559Z,67.60
2018-12-25T15:27:03.266Z,67.80
2018-12-25T15:30:06.761Z,68.21
2018-12-25T15:33:16.986Z,68.53
2018-12-25T15:36:20.325Z,69.02
2018-12-25T15:39:30.581Z,69.38
2018-12-25T15:42:33.480Z,69.37
2018-12-25T15:45:36.245Z,68.78
2018-12-25T15:48:39.205Z,68.74
2018-12-25T15:51:49.534Z,68.77
2018-12-25T15:54:52.943Z,68.83
2018-12-25T15:58:03.211Z,69.28
2018-12-25T16:01:06.003Z,69.43
2018-12-25T16:04:10.441Z,69.49
2018-12-25T16:07:13.163Z,69.60
2018-12-25T16:10:23.471Z,69.30
2018-12-25T16:13:26.838Z,69.78
2018-12-25T16:16:37.113Z,69.71
2018-12-25T16:19:39.604Z,69.65
2018-12-25T16:22:49.868Z,69.54
2018-12-25T16:25:52.454Z,69.12
2018-12-25T16:29:02.739Z,69.12
2018-12-25T16:32:05.560Z,69.47
2018-12-25T16:35:15.856Z,69.12
2018-12-25T16:38:18.389Z,69.34
2018-12-25T16:41:28.671Z,69.64
2018-12-25T16:44:31.872Z,69.75
2018-12-25T16:47:42.143Z,69.38
2018-12-25T16:50:44.903Z,69.16
2018-12-25T16:53:55.236Z,69.47
2018-12-25T16:56:58.187Z,69.20
2018-12-25T17:00:09.015Z,69.27
2018-12-25T17:03:12.464Z,68.96
2018-12-25T17:06:15.306Z,69.35
2018-12-25T17:09:18.466Z,68.83
2018-12-25T17:12:28.794Z,68.72
2018-12-25T17:15:31.341Z,69.36
2018-12-25T17:18:41.678Z,69.10
2018-12-25T17:21:44.119Z,69.20
2018-12-25T17:24:54.463Z,69.02
2018-12-25T17:27:57.750Z,69.07
2018-12-25T17:31:08.087Z,68.80
2018-12-25T17:34:10.786Z,69.15
2018-12-25T17:37:13.729Z,69.25
2018-12-25T17:40:24.044Z,69.16
2018-12-25T17:43:26.964Z,69.60
2018-12-25T17:46:37.249Z,69.06
2018-12-25T17:49:39.949Z,68.97
2018-12-25T17:52:50.300Z,69.43
2018-12-25T17:55:52.830Z,68.81
2018-12-25T17:59:03.171Z,69.36
2018-12-25T18:02:05.861Z,69.23
2018-12-25T18:05:12.127Z,69.72
2018-12-25T18:08:20.787Z,69.01
2018-12-25T18:11:23.701Z,69.53
2018-12-25T18:14:26.400Z,69.15
2018-12-25T18:17:36.739Z,69.24
2018-12-25T18:20:40.120Z,70.29
2018-12-25T18:23:43.086Z,69.89
2018-12-25T18:26:53.387Z,70.47
2018-12-25T18:29:56.673Z,70.09
2018-12-25T18:32:59.852Z,69.40
2018-12-25T18:36:10.156Z,70.18
2018-12-25T18:39:13.208Z,69.73
2018-12-25T18:42:23.613Z,69.33
2018-12-25T18:45:26.841Z,69.05
2018-12-25T18:48:37.189Z,69.33
2018-12-25T18:51:40.659Z,69.55
2018-12-25T18:54:50.948Z,69.94
2018-12-25T18:57:53.447Z,70.17
2018-12-25T19:01:03.744Z,70.01
2018-12-25T19:04:06.545Z,69.66
2018-12-25T19:07:16.807Z,70.19
2018-12-25T19:10:20.240Z,70.12
2018-12-25T19:13:30.509Z,70.19
2018-12-25T19:16:33.796Z,70.47
2018-12-25T19:19:36.717Z,69.90
2018-12-25T19:22:47.001Z,70.63
2018-12-25T19:25:50.318Z,70.47
2018-12-25T19:29:00.559Z,70.35
2018-12-25T19:32:03.388Z,70.33
2018-12-25T19:35:13.703Z,70.51
2018-12-25T19:38:16.423Z,71.12
2018-12-25T19:41:19.854Z,71.33
2018-12-25T19:44:30.163Z,71.01
2018-12-25T19:47:33.072Z,71.17
2018-12-25T19:50:43.375Z,71.50
2018-12-25T19:53:46.445Z,71.48
2018-12-25T19:56:56.762Z,71.58
2018-12-25T19:59:59.507Z,71.85
2018-12-25T20:03:21.736Z,71.93
2018-12-25T20:06:46.397Z,71.68
2018-12-25T20:10:08.275Z,72.29
2018-12-25T20:13:56.728Z,72.39
2018-12-25T20:17:10.432Z,72.48
2018-12-25T20:20:58.825Z,72.83
2018-12-25T20:24:06.555Z,72.92
2018-12-25T20:27:16.407Z,73.59
2018-12-25T20:31:04.774Z,73.80
2018-12-25T20:34:26.541Z,74.03
2018-12-25T20:38:14.939Z,74.09
2018-12-25T20:41:40.149Z,74.16
2018-12-25T20:45:28.556Z,73.85
2018-12-25T20:48:50.775Z,74.15
2018-12-25T20:52:12.656Z,74.30
2018-12-25T20:56:01.027Z,74.71
2018-12-25T20:59:23.146Z,74.10
2018-12-25T21:03:11.535Z,74.65
2018-12-25T21:06:33.309Z,74.91
2018-12-25T21:10:21.646Z,75.41
2018-12-25T21:13:43.661Z,75.33
2018-12-25T21:17:32.016Z,75.62
2018-12-25T21:24:59.187Z,75.39
2018-12-25T21:28:01.008Z,75.01
2018-12-25T21:31:04.100Z,75.67
2018-12-25T21:34:14.467Z,75.73
2018-12-25T21:37:17.204Z,74.91
2018-12-25T21:40:28.204Z,74.92
2018-12-25T21:43:31.105Z,75.41
2018-12-25T21:50:05.045Z,75.73
2018-12-25T21:53:15.337Z,76.17
2018-12-25T21:56:18.152Z,76.25
2018-12-25T21:59:28.454Z,76.34
2018-12-25T22:02:31.826Z,76.33
2018-12-25T22:05:42.128Z,76.14
2018-12-25T22:08:44.952Z,76.64
2018-12-25T22:11:49.777Z,76.97
2018-12-25T22:15:00.156Z,76.82
2018-12-25T22:18:02.944Z,76.79
2018-12-25T22:21:13.273Z,77.02
2018-12-25T22:24:16.147Z,77.45
2018-12-25T22:27:26.558Z,77.06
2018-12-25T22:30:29.079Z,76.37
2018-12-25T22:33:39.347Z,76.87
2018-12-25T22:36:42.186Z,77.61
2018-12-25T22:39:52.510Z,77.28
2018-12-25T22:42:55.738Z,77.71
2018-12-25T22:45:58.996Z,77.67
2018-12-25T22:49:09.247Z,77.25
2018-12-25T22:52:12.852Z,77.82
2018-12-25T22:55:23.284Z,78.17
2018-12-25T22:58:25.830Z,77.86
2018-12-25T23:01:36.103Z,77.81
2018-12-25T23:04:38.839Z,77.74
2018-12-25T23:07:49.094Z,77.55
2018-12-25T23:10:51.957Z,77.37
2018-12-25T23:14:02.216Z,77.96
2018-12-25T23:17:04.815Z,78.01
2018-12-25T23:20:15.073Z,78.22
2018-12-25T23:23:17.922Z,78.46
2018-12-25T23:26:28.219Z,78.45
2018-12-25T23:29:30.801Z,77.81
2018-12-25T23:32:41.162Z,77.71
2018-12-25T23:35:44.018Z,77.60
2018-12-25T23:38:54.287Z,78.00
2018-12-25T23:41:56.867Z,77.97
2018-12-25T23:45:07.320Z,78.23
2018-12-25T23:48:10.129Z,78.18
2018-12-25T23:51:20.442Z,78.03
2018-12-25T23:54:23.811Z,78.03
2018-12-25T23:57:34.111Z,78.29
